»·PEaware :: N72C KBUR-KSBA

N72C :: KBUR-KSBA

FLIGHT INFORMATION

Flight Status: Arrived
Operator: Privately registered:
United States
More flights under this callsign
Pilot: Charles C. (26995)
Aircraft: SOCATA TBM-900
(TBM9)
More flights by this aircraft type
Origin: KBUR Bob Hope-Burbank
United States
Destination: KSBA Santa Barbara Mun
United States
More flights between these airports :: More routes between these airports
Route: +VNY3 FIM V186 DEANO V27 KWANG
File this flight plan on PilotEdge
Remarks: TEC route BURP39
Altitude:
(Current/Filed)
6,000ft
Speed:
(Current/Filed)
250kts
Departed: 19-Nov-20 10:34 AM
Arrived: 19-Nov-20 11:10 AM
Distance/Time
Traveled:
74nm/0:36
Distance/Time
To Go:
Arrived

Flight Plot

Page will automatically refresh every two minutes.

Flight plan parsing failed; only flown route is shown


Map Options




Map Legend


Flown Route
Filed Route
Departure Airport
Arrival Airport
Navaid (VOR, NDB)
Fix

Horizontal Profiles

Position Reports

Time Latitude Longitude Heading Altitude Ground
Speed
19-Nov-20 10:11 34.200010 -118.359577 12 721ft 0kts
19-Nov-20 10:12 34.200010 -118.359577 12 721ft 0kts
19-Nov-20 10:13 34.200010 -118.359577 12 721ft 0kts
19-Nov-20 10:14 34.200010 -118.359577 12 721ft 0kts
19-Nov-20 10:15 34.200010 -118.359577 12 721ft 0kts
19-Nov-20 10:16 34.200010 -118.359577 12 721ft 0kts
19-Nov-20 10:17 34.200010 -118.359577 12 721ft 0kts
19-Nov-20 10:18 34.200010 -118.359577 12 721ft 0kts
19-Nov-20 10:19 34.200010 -118.359577 12 721ft 0kts
19-Nov-20 10:20 34.200009 -118.359577 13 721ft 0kts
19-Nov-20 10:21 34.200009 -118.359577 13 721ft 0kts
19-Nov-20 10:22 34.200009 -118.359577 13 721ft 0kts
19-Nov-20 10:23 34.200009 -118.359577 13 721ft 0kts
19-Nov-20 10:24 34.200009 -118.359577 13 721ft 0kts
19-Nov-20 10:25 34.200010 -118.359577 12 721ft 0kts
19-Nov-20 10:26 34.200010 -118.359577 12 721ft 0kts
19-Nov-20 10:27 34.200010 -118.359577 12 721ft 0kts
19-Nov-20 10:28 34.200015 -118.359577 6 721ft 1kts
19-Nov-20 10:29 34.199639 -118.358620 113 717ft 0kts
19-Nov-20 10:30 34.201531 -118.358637 346 725ft 19kts
19-Nov-20 10:31 34.205748 -118.359822 346 740ft 21kts
19-Nov-20 10:32 34.209525 -118.360466 56 758ft 10kts
19-Nov-20 10:33 34.203096 -118.357912 164 738ft 110kts
19-Nov-20 10:34 34.174180 -118.370338 219 2764ft 127kts
19-Nov-20 10:35 34.147359 -118.404076 223 4707ft 146kts
19-Nov-20 10:36 34.115266 -118.442254 221 5943ft 184kts
19-Nov-20 10:37 34.080390 -118.496027 274 5883ft 222kts
19-Nov-20 10:38 34.092619 -118.570961 281 5996ft 230kts
19-Nov-20 10:39 34.105877 -118.647910 281 6008ft 236kts
19-Nov-20 10:40 34.119295 -118.725806 281 6008ft 237kts
19-Nov-20 10:41 34.132370 -118.802385 281 6013ft 234kts
19-Nov-20 10:42 34.145747 -118.880936 281 6004ft 241kts
19-Nov-20 10:43 34.164889 -118.958606 287 6006ft 241kts
19-Nov-20 10:44 34.185108 -119.035783 287 6006ft 241kts
19-Nov-20 10:45 34.205368 -119.113398 288 6005ft 241kts
19-Nov-20 10:46 34.225566 -119.190960 288 6006ft 242kts
19-Nov-20 10:47 34.245870 -119.269152 288 5999ft 243kts
19-Nov-20 10:48 34.266115 -119.347305 288 6000ft 243kts
19-Nov-20 10:49 34.286239 -119.425272 288 5998ft 243kts
19-Nov-20 10:50 34.306501 -119.503903 288 5654ft 255kts
19-Nov-20 10:51 34.315725 -119.586088 269 5309ft 250kts
19-Nov-20 10:52 34.313977 -119.670785 269 4989ft 243kts
19-Nov-20 10:53 34.312087 -119.752238 269 4991ft 241kts
19-Nov-20 10:54 34.310325 -119.833387 269 4991ft 240kts
19-Nov-20 10:55 34.308598 -119.913956 269 4991ft 240kts
19-Nov-20 10:56 34.306889 -119.994811 269 4991ft 240kts
19-Nov-20 10:57 34.305207 -120.075667 269 5000ft 240kts
19-Nov-20 10:58 34.305471 -120.151880 297 4960ft 197kts
19-Nov-20 10:59 34.350798 -120.162776 0 3968ft 140kts
19-Nov-20 11:00 34.393505 -120.157212 43 4006ft 168kts
19-Nov-20 11:01 34.414700 -120.107818 62 3700ft 147kts
19-Nov-20 11:02 34.422779 -120.060891 90 3096ft 147kts
19-Nov-20 11:03 34.423942 -120.015998 86 2609ft 126kts
19-Nov-20 11:05 34.424893 -119.973935 87 1943ft 118kts
19-Nov-20 11:06 34.425597 -119.942054 87 1444ft 88kts
19-Nov-20 11:07 34.426247 -119.912171 87 979ft 89kts
19-Nov-20 11:08 34.426891 -119.882439 88 509ft 87kts
19-Nov-20 11:09 34.427532 -119.852843 86 32ft 83kts
19-Nov-20 11:10 34.427623 -119.838713 137 12ft 9kts
19-Nov-20 11:11 34.425432 -119.836072 306 10ft 0kts
19-Nov-20 11:12 34.425437 -119.836077 318 10ft 0kts
19-Nov-20 11:13 34.425437 -119.836077 318 10ft 0kts
19-Nov-20 11:14 34.425437 -119.836077 318 10ft 0kts

Navigation Log

Ident Type
Flight plan parsing failed, navigation log unavailable